Time;durP1;ratioP1;P1;durP2;ratioP2;P2;SDS_P1;SDS_P2;PMS_P1;PMS_P2;Temp;Humidity;BMP_temperature;BMP_pressure;BME280_temperature;BME280_humidity;BME280_pressure;Samples;Min_cycle;Max_cycle;Signal;HPM_P1;HPM_P2
2024/02/28 00:04:05;;;;;;;2.65;1.20;;;;;;;;;;10399837;28;20429;-91
2024/02/28 00:09:10;;;;;;;2.20;1.20;;;;;;;;;;10403032;28;20414;-91
2024/02/28 00:14:13;;;;;;;1.67;1.02;;;;;;;;;;10415665;28;20413;-91
2024/02/28 00:19:16;;;;;;;4.20;1.38;;;;;;;;;;10416533;28;20410;-91
2024/02/28 00:24:20;;;;;;;2.13;1.20;;;;;;;;;;10418880;28;20425;-92
2024/02/28 00:29:23;;;;;;;2.13;1.25;;;;;;;;;;10417924;28;20410;-91
2024/02/28 00:34:25;;;;;;;2.55;1.20;;;;;;;;;;10415016;28;20463;-91
2024/02/28 00:39:29;;;;;;;1.70;1.10;;;;;;;;;;10417475;28;20394;-92
2024/02/28 00:44:32;;;;;;;2.28;1.00;;;;;;;;;;10404655;28;20413;-92
2024/02/28 00:49:34;;;;;;;2.67;1.60;;;;;;;;;;10397152;28;20449;-90
2024/02/28 00:54:38;;;;;;;2.50;1.35;;;;;;;;;;10405316;28;20394;-90
2024/02/28 00:59:40;;;;;;;4.20;1.50;;;;;;;;;;10409457;28;20440;-90
2024/02/28 01:04:43;;;;;;;1.43;1.10;;;;;;;;;;10412061;28;20421;-91
2024/02/28 01:09:47;;;;;;;2.75;1.20;;;;;;;;;;10407190;28;20455;-91
2024/02/28 01:14:49;;;;;;;1.52;1.05;;;;;;;;;;10408545;28;20460;-90
2024/02/28 01:19:51;;;;;;;2.55;0.90;;;;;;;;;;10406179;28;20483;-91
2024/02/28 01:24:55;;;;;;;1.23;0.93;;;;;;;;;;10411785;28;20421;-90
2024/02/28 01:29:57;;;;;;;3.27;1.30;;;;;;;;;;10405051;28;20409;-91
2024/02/28 01:35:00;;;;;;;2.35;1.13;;;;;;;;;;10402290;28;21225;-91
2024/02/28 01:40:05;;;;;;;2.85;1.00;;;;;;;;;;10415238;28;20413;-90
2024/02/28 01:45:09;;;;;;;2.57;1.30;;;;;;;;;;10413404;28;20417;-90
2024/02/28 01:50:12;;;;;;;2.67;1.17;;;;;;;;;;10413350;28;20405;-91
2024/02/28 01:55:16;;;;;;;1.95;1.40;;;;;;;;;;10414384;28;20406;-91
2024/02/28 02:00:19;;;;;;;3.55;1.20;;;;;;;;;;10410951;28;20409;-91
2024/02/28 02:05:22;;;;;;;3.65;0.98;;;;;;;;;;10411305;28;20425;-90
2024/02/28 02:10:26;;;;;;;2.90;1.00;;;;;;;;;;10418204;28;20401;-91
2024/02/28 02:15:31;;;;;;;1.80;0.82;;;;;;;;;;10410843;28;20405;-91
2024/02/28 02:20:37;;;;;;;3.47;1.05;;;;;;;;;;10420953;28;20470;-91
2024/02/28 02:25:46;;;;;;;1.45;0.88;;;;;;;;;;10418165;28;20977;-91
2024/02/28 02:30:49;;;;;;;1.35;0.90;;;;;;;;;;10410378;28;20955;-91
2024/02/28 02:35:51;;;;;;;2.40;0.90;;;;;;;;;;10404979;28;20471;-92
2024/02/28 02:40:55;;;;;;;3.45;0.85;;;;;;;;;;10419219;28;20413;-90
2024/02/28 02:45:57;;;;;;;2.57;1.10;;;;;;;;;;10419244;28;20421;-91
2024/02/28 02:50:59;;;;;;;2.77;1.00;;;;;;;;;;10418160;28;20479;-90
2024/02/28 02:56:05;;;;;;;2.70;1.00;;;;;;;;;;10419401;28;20421;-91
2024/02/28 03:01:08;;;;;;;1.30;0.80;;;;;;;;;;10423086;28;20398;-91
2024/02/28 03:06:11;;;;;;;2.95;1.08;;;;;;;;;;10398408;28;20474;-90
2024/02/28 03:11:15;;;;;;;2.95;0.98;;;;;;;;;;10417322;28;20467;-91
2024/02/28 03:16:17;;;;;;;1.70;0.70;;;;;;;;;;10417443;28;20401;-89
2024/02/28 03:21:20;;;;;;;2.88;0.90;;;;;;;;;;10418415;28;20888;-91
2024/02/28 03:26:24;;;;;;;1.73;0.80;;;;;;;;;;10414008;28;20977;-90
2024/02/28 03:31:26;;;;;;;1.35;0.77;;;;;;;;;;10402956;28;20470;-91
2024/02/28 03:36:29;;;;;;;1.15;0.70;;;;;;;;;;10412504;28;20432;-90
2024/02/28 03:41:33;;;;;;;2.40;0.80;;;;;;;;;;10417330;28;20475;-91
2024/02/28 03:46:36;;;;;;;0.93;0.73;;;;;;;;;;10413144;28;21017;-91
2024/02/28 03:51:41;;;;;;;2.60;0.93;;;;;;;;;;10414056;28;20401;-91
2024/02/28 03:56:44;;;;;;;4.88;0.98;;;;;;;;;;10394696;28;20413;-91
2024/02/28 04:01:47;;;;;;;2.72;1.02;;;;;;;;;;10410701;28;20415;-92
2024/02/28 04:06:49;;;;;;;2.75;0.80;;;;;;;;;;10403200;28;20969;-92
2024/02/28 04:11:53;;;;;;;1.65;0.80;;;;;;;;;;10405635;28;20402;-90
2024/02/28 04:16:55;;;;;;;3.58;1.13;;;;;;;;;;10400762;28;20481;-90
2024/02/28 04:21:58;;;;;;;3.03;1.00;;;;;;;;;;10412484;28;20468;-91
2024/02/28 04:27:04;;;;;;;2.80;1.00;;;;;;;;;;10406895;28;20542;-90
2024/02/28 04:32:07;;;;;;;3.27;0.97;;;;;;;;;;10402376;28;20432;-91
2024/02/28 04:37:09;;;;;;;1.63;0.70;;;;;;;;;;10412548;28;20413;-90
2024/02/28 04:42:13;;;;;;;2.15;0.90;;;;;;;;;;10414415;28;20479;-90
2024/02/28 04:47:16;;;;;;;2.22;0.80;;;;;;;;;;10400603;28;20440;-87
2024/02/28 04:52:18;;;;;;;1.55;1.08;;;;;;;;;;10414222;28;20405;-90
2024/02/28 04:57:22;;;;;;;1.80;0.88;;;;;;;;;;10413730;28;20409;-89
2024/02/28 05:02:25;;;;;;;5.45;1.08;;;;;;;;;;10402450;28;20410;-91
2024/02/28 05:07:28;;;;;;;1.85;0.77;;;;;;;;;;10411793;28;20471;-90
2024/02/28 05:12:32;;;;;;;2.03;0.88;;;;;;;;;;10411317;28;20413;-90
2024/02/28 05:17:34;;;;;;;3.10;1.20;;;;;;;;;;10410921;28;20410;-91
2024/02/28 05:22:37;;;;;;;2.80;0.90;;;;;;;;;;10410312;28;20403;-90
2024/02/28 05:27:40;;;;;;;1.88;0.93;;;;;;;;;;10392091;28;20428;-90
2024/02/28 05:32:43;;;;;;;1.70;0.68;;;;;;;;;;10402597;28;20535;-90
2024/02/28 05:37:46;;;;;;;2.70;0.80;;;;;;;;;;10400619;28;20405;-90
2024/02/28 05:42:50;;;;;;;1.05;0.60;;;;;;;;;;10400414;28;20441;-91
2024/02/28 05:47:52;;;;;;;1.02;0.60;;;;;;;;;;10416851;28;20468;-91
2024/02/28 05:52:54;;;;;;;1.98;0.55;;;;;;;;;;10413338;28;20471;-91
2024/02/28 05:57:58;;;;;;;1.20;0.63;;;;;;;;;;10413975;28;20950;-91
2024/02/28 06:03:01;;;;;;;2.00;0.50;;;;;;;;;;10398952;28;20912;-90
2024/02/28 06:08:03;;;;;;;2.60;0.60;;;;;;;;;;10410977;28;20411;-91
2024/02/28 06:13:07;;;;;;;0.80;0.40;;;;;;;;;;10399414;28;20401;-90
2024/02/28 06:18:09;;;;;;;1.85;0.50;;;;;;;;;;10408057;28;20413;-89
2024/02/28 06:23:11;;;;;;;1.10;0.60;;;;;;;;;;10399193;28;20423;-88
2024/02/28 06:28:15;;;;;;;2.05;0.85;;;;;;;;;;10397855;28;20409;-89
2024/02/28 06:33:18;;;;;;;2.30;0.70;;;;;;;;;;10393883;28;20539;-87
2024/02/28 06:38:20;;;;;;;1.00;0.40;;;;;;;;;;10394168;28;20399;-89
2024/02/28 06:43:24;;;;;;;2.55;1.00;;;;;;;;;;10394803;28;20490;-89
2024/02/28 06:48:27;;;;;;;0.73;0.40;;;;;;;;;;10394023;28;20414;-88
2024/02/28 06:53:29;;;;;;;0.65;0.50;;;;;;;;;;10404027;28;20430;-88
2024/02/28 06:58:33;;;;;;;0.95;0.70;;;;;;;;;;10403538;28;20401;-88
2024/02/28 07:03:35;;;;;;;0.90;0.60;;;;;;;;;;10401770;28;20471;-92
2024/02/28 07:08:38;;;;;;;1.25;0.63;;;;;;;;;;10402822;28;20394;-92
2024/02/28 07:13:41;;;;;;;0.50;0.50;;;;;;;;;;10403502;28;20407;-92
2024/02/28 07:18:44;;;;;;;0.80;0.77;;;;;;;;;;10399163;28;20419;-92
2024/02/28 07:23:46;;;;;;;0.60;0.50;;;;;;;;;;10411339;28;20423;-91
2024/02/28 07:28:50;;;;;;;2.05;0.60;;;;;;;;;;10400309;28;20469;-94
2024/02/28 07:33:52;;;;;;;0.88;0.70;;;;;;;;;;10405934;28;20410;-93
2024/02/28 07:38:55;;;;;;;0.80;0.65;;;;;;;;;;10403672;28;20435;-92
2024/02/28 07:44:00;;;;;;;1.42;0.60;;;;;;;;;;10397637;28;20440;-92
2024/02/28 07:49:03;;;;;;;1.27;0.80;;;;;;;;;;10396173;23;20463;-93
2024/02/28 07:54:06;;;;;;;1.55;0.60;;;;;;;;;;10383926;28;20949;-94
2024/02/28 07:59:10;;;;;;;0.43;0.43;;;;;;;;;;10384189;28;20471;-92
2024/02/28 08:04:12;;;;;;;1.33;0.53;;;;;;;;;;10378855;28;20476;-94
2024/02/28 08:09:16;;;;;;;2.40;0.70;;;;;;;;;;10380931;28;20434;-94
2024/02/28 08:14:21;;;;;;;1.02;0.70;;;;;;;;;;10394299;28;20388;-93
2024/02/28 08:19:23;;;;;;;1.55;0.70;;;;;;;;;;10379012;28;20961;-96
2024/02/28 08:24:25;;;;;;;0.93;0.50;;;;;;;;;;10394617;28;20454;-87
2024/02/28 08:29:29;;;;;;;0.90;0.80;;;;;;;;;;10394381;28;20486;-91
2024/02/28 08:34:32;;;;;;;1.40;0.50;;;;;;;;;;10358730;28;20466;-91
2024/02/28 08:39:34;;;;;;;0.55;0.45;;;;;;;;;;10374858;28;20438;-91
2024/02/28 08:44:38;;;;;;;1.15;0.57;;;;;;;;;;10364453;28;20492;-93
2024/02/28 08:49:40;;;;;;;0.50;0.50;;;;;;;;;;10384240;28;20460;-91
2024/02/28 08:54:43;;;;;;;0.70;0.53;;;;;;;;;;10358180;28;20417;-91
2024/02/28 08:59:46;;;;;;;0.50;0.50;;;;;;;;;;10372903;28;20401;-92
2024/02/28 09:04:51;;;;;;;1.70;0.70;;;;;;;;;;10368294;28;20430;-91
2024/02/28 09:09:54;;;;;;;0.93;0.53;;;;;;;;;;10364831;28;20458;-92
2024/02/28 09:14:58;;;;;;;0.50;0.40;;;;;;;;;;10381865;28;20403;-92
2024/02/28 09:20:04;;;;;;;0.50;0.50;;;;;;;;;;10349141;28;20439;-93
2024/02/28 09:25:08;;;;;;;0.65;0.43;;;;;;;;;;10344404;28;20955;-91
2024/02/28 09:30:12;;;;;;;0.77;0.50;;;;;;;;;;10359778;28;20442;-90
2024/02/28 09:35:15;;;;;;;0.40;0.40;;;;;;;;;;10369837;28;20416;-90
2024/02/28 09:40:18;;;;;;;1.17;0.40;;;;;;;;;;10371990;28;20477;-91
2024/02/28 09:45:24;;;;;;;1.50;0.60;;;;;;;;;;10373746;28;20430;-92
2024/02/28 09:50:27;;;;;;;0.90;0.60;;;;;;;;;;10371526;28;20884;-91
2024/02/28 09:55:32;;;;;;;0.70;0.60;;;;;;;;;;10392374;28;20419;-95
2024/02/28 10:00:38;;;;;;;2.00;0.75;;;;;;;;;;10370135;28;20445;-94
2024/02/28 10:05:40;;;;;;;1.38;0.60;;;;;;;;;;10377267;28;20450;-95
2024/02/28 10:10:48;;;;;;;1.10;0.73;;;;;;;;;;10353602;28;20455;-93
2024/02/28 10:15:52;;;;;;;0.93;0.50;;;;;;;;;;10377453;28;20853;-95
2024/02/28 10:20:54;;;;;;;1.08;0.50;;;;;;;;;;10363280;28;20449;-93
2024/02/28 10:25:57;;;;;;;1.15;0.80;;;;;;;;;;10358064;28;20425;-94
2024/02/28 10:31:01;;;;;;;2.63;1.20;;;;;;;;;;10370043;28;20469;-95
2024/02/28 10:36:04;;;;;;;1.77;0.80;;;;;;;;;;10402201;28;20407;-94
2024/02/28 10:41:08;;;;;;;1.60;1.10;;;;;;;;;;10411440;28;20389;-94
2024/02/28 10:46:16;;;;;;;2.90;1.00;;;;;;;;;;10409591;28;20410;-93
2024/02/28 10:51:24;;;;;;;1.77;0.70;;;;;;;;;;10400393;28;20387;-96
2024/02/28 10:56:31;;;;;;;0.95;0.50;;;;;;;;;;10392190;28;20441;-94
2024/02/28 11:01:36;;;;;;;0.82;0.65;;;;;;;;;;10378491;28;20407;-94
2024/02/28 11:06:49;;;;;;;1.33;0.80;;;;;;;;;;10396057;28;20419;-94
2024/02/28 11:11:51;;;;;;;1.43;0.80;;;;;;;;;;10395697;28;20404;-93
2024/02/28 11:17:05;;;;;;;1.90;0.80;;;;;;;;;;10373730;28;20474;-91
2024/02/28 11:22:08;;;;;;;3.10;0.90;;;;;;;;;;10372783;28;20403;-92
2024/02/28 11:27:14;;;;;;;3.20;1.10;;;;;;;;;;10372344;28;20464;-92
2024/02/28 11:32:18;;;;;;;1.92;0.90;;;;;;;;;;10374390;28;20898;-90
2024/02/28 11:37:21;;;;;;;1.85;0.98;;;;;;;;;;10367759;28;20432;-92
2024/02/28 11:42:23;;;;;;;0.80;0.60;;;;;;;;;;10352385;28;20407;-91
2024/02/28 11:47:27;;;;;;;2.20;0.70;;;;;;;;;;10371898;28;20432;-92
2024/02/28 11:52:31;;;;;;;1.85;1.25;;;;;;;;;;10375271;28;20419;-91
2024/02/28 11:57:35;;;;;;;1.92;0.88;;;;;;;;;;10394365;28;20768;-92
2024/02/28 12:02:39;;;;;;;1.10;0.80;;;;;;;;;;10381980;28;20415;-91
2024/02/28 12:07:42;;;;;;;1.20;0.70;;;;;;;;;;10400540;28;20415;-91
2024/02/28 12:12:45;;;;;;;2.30;0.70;;;;;;;;;;10375648;28;20446;-92
2024/02/28 12:17:49;;;;;;;1.75;0.60;;;;;;;;;;10364955;28;20475;-91
2024/02/28 12:22:52;;;;;;;1.80;0.60;;;;;;;;;;10380165;28;20419;-91
2024/02/28 12:27:54;;;;;;;8.15;1.95;;;;;;;;;;10381676;28;20983;-91
2024/02/28 12:32:58;;;;;;;1.90;0.80;;;;;;;;;;10380114;28;20407;-91
2024/02/28 12:38:00;;;;;;;1.85;1.10;;;;;;;;;;10397561;28;20393;-91
2024/02/28 12:43:03;;;;;;;1.20;0.75;;;;;;;;;;10374430;28;20415;-91
2024/02/28 12:48:07;;;;;;;1.75;0.65;;;;;;;;;;10370163;28;20478;-92
2024/02/28 12:53:09;;;;;;;2.53;0.80;;;;;;;;;;10393239;28;20413;-92
2024/02/28 12:58:12;;;;;;;1.37;0.90;;;;;;;;;;10374468;28;20419;-92
2024/02/28 13:03:16;;;;;;;2.10;0.80;;;;;;;;;;10383718;28;20407;-92
2024/02/28 13:08:19;;;;;;;3.00;1.13;;;;;;;;;;10388226;28;20444;-91
2024/02/28 13:13:21;;;;;;;5.50;1.00;;;;;;;;;;10380673;28;20418;-91
2024/02/28 13:18:25;;;;;;;1.83;0.97;;;;;;;;;;10372388;28;20404;-91
2024/02/28 13:23:30;;;;;;;1.50;0.93;;;;;;;;;;10354009;28;20424;-93
2024/02/28 13:28:33;;;;;;;2.90;1.30;;;;;;;;;;10357095;28;20419;-93
2024/02/28 13:33:37;;;;;;;4.67;1.20;;;;;;;;;;10357298;28;20450;-91
2024/02/28 13:38:39;;;;;;;5.30;1.53;;;;;;;;;;10364250;28;20409;-94
2024/02/28 13:43:42;;;;;;;3.05;1.02;;;;;;;;;;10373095;28;20411;-93
2024/02/28 13:48:46;;;;;;;8.38;1.23;;;;;;;;;;10373708;28;20421;-92
2024/02/28 13:53:51;;;;;;;4.75;1.63;;;;;;;;;;10384432;28;20430;-93
2024/02/28 13:58:54;;;;;;;5.35;1.90;;;;;;;;;;10382713;28;20424;-92
2024/02/28 14:03:58;;;;;;;4.00;1.70;;;;;;;;;;10354452;28;20467;-92
2024/02/28 14:09:00;;;;;;;5.27;1.67;;;;;;;;;;10385626;28;20917;-91
2024/02/28 14:14:03;;;;;;;5.28;1.50;;;;;;;;;;10367005;28;20448;-91
2024/02/28 14:19:07;;;;;;;4.40;1.35;;;;;;;;;;10368789;28;20416;-91
2024/02/28 14:24:09;;;;;;;3.33;1.00;;;;;;;;;;10390421;28;20414;-90
2024/02/28 14:29:11;;;;;;;3.15;1.10;;;;;;;;;;10384608;28;20423;-90
2024/02/28 14:34:15;;;;;;;5.13;1.50;;;;;;;;;;10369467;28;20774;-92
2024/02/28 14:39:18;;;;;;;1.85;1.13;;;;;;;;;;10379007;28;20411;-93
2024/02/28 14:44:21;;;;;;;3.53;1.40;;;;;;;;;;10393804;28;20434;-91
2024/02/28 14:49:25;;;;;;;6.67;1.83;;;;;;;;;;10394886;28;20558;-92
2024/02/28 14:54:27;;;;;;;5.00;2.00;;;;;;;;;;10386902;28;20958;-92
2024/02/28 14:59:30;;;;;;;8.50;2.33;;;;;;;;;;10384809;28;20434;-94
2024/02/28 15:04:33;;;;;;;4.95;1.95;;;;;;;;;;10399920;28;20407;-94
2024/02/28 15:09:36;;;;;;;5.60;2.28;;;;;;;;;;10392654;28;20425;-95
2024/02/28 15:14:38;;;;;;;6.80;1.80;;;;;;;;;;10382912;28;20407;-93
2024/02/28 15:19:42;;;;;;;7.13;1.85;;;;;;;;;;10364864;28;20497;-94
2024/02/28 15:24:44;;;;;;;6.40;2.08;;;;;;;;;;10386072;28;20440;-94
2024/02/28 16:25:59;;;;;;;8.45;2.92;;;;;;;;;;10352245;28;20487;-93
2024/02/28 16:31:03;;;;;;;9.65;3.47;;;;;;;;;;10356859;28;20877;-93
2024/02/28 16:36:06;;;;;;;7.93;3.28;;;;;;;;;;10358491;28;20443;-87
2024/02/28 16:41:08;;;;;;;7.30;3.22;;;;;;;;;;10372740;28;20483;-88
2024/02/28 16:46:12;;;;;;;6.33;3.20;;;;;;;;;;10341595;28;20999;-88
2024/02/28 16:51:15;;;;;;;9.25;4.40;;;;;;;;;;10351788;28;20479;-88
2024/02/28 16:56:17;;;;;;;8.13;4.60;;;;;;;;;;10340610;28;21252;-92
2024/02/28 17:01:23;;;;;;;6.93;4.13;;;;;;;;;;10354473;28;21004;-92
2024/02/28 17:06:26;;;;;;;6.95;3.65;;;;;;;;;;10369510;28;20785;-92
2024/02/28 17:11:28;;;;;;;7.97;4.15;;;;;;;;;;10339405;28;22035;-91
2024/02/28 17:16:32;;;;;;;9.10;4.43;;;;;;;;;;10362690;28;20411;-91
2024/02/28 17:21:35;;;;;;;8.37;4.00;;;;;;;;;;10365807;28;20494;-92
2024/02/28 17:26:37;;;;;;;7.57;3.47;;;;;;;;;;10361757;28;20439;-92
2024/02/28 17:31:41;;;;;;;6.85;4.32;;;;;;;;;;10378730;28;20467;-92
2024/02/28 17:36:43;;;;;;;5.63;2.90;;;;;;;;;;10370451;28;20423;-93
2024/02/28 17:41:46;;;;;;;6.57;2.88;;;;;;;;;;10384789;28;20841;-90
2024/02/28 17:47:07;;;;;;;9.95;3.30;;;;;;;;;;10361626;28;20423;-91
2024/02/28 17:52:10;;;;;;;6.70;3.30;;;;;;;;;;10389646;28;20411;-92
2024/02/28 17:57:12;;;;;;;9.93;4.60;;;;;;;;;;10373112;28;20477;-91
2024/02/28 18:02:16;;;;;;;13.13;6.43;;;;;;;;;;10416304;28;20450;-91
2024/02/28 18:07:18;;;;;;;7.57;4.30;;;;;;;;;;10378226;28;20813;-90
2024/02/28 18:12:21;;;;;;;10.40;4.88;;;;;;;;;;10368856;28;20419;-90
2024/02/28 18:17:24;;;;;;;8.55;3.90;;;;;;;;;;10361423;28;20419;-92
2024/02/28 18:22:27;;;;;;;40.75;18.73;;;;;;;;;;10363583;28;20461;-89
2024/02/28 18:27:40;;;;;;;12.30;6.10;;;;;;;;;;10376864;28;20727;-92
2024/02/28 18:32:47;;;;;;;11.20;6.25;;;;;;;;;;10376546;28;20420;-90
2024/02/28 18:37:49;;;;;;;14.68;8.70;;;;;;;;;;10365171;28;20401;-90
2024/02/28 18:42:51;;;;;;;9.07;6.05;;;;;;;;;;10360728;28;20444;-91
2024/02/28 18:47:56;;;;;;;11.37;6.00;;;;;;;;;;10368343;28;20430;-89
2024/02/28 18:52:59;;;;;;;7.85;4.90;;;;;;;;;;10378349;28;20419;-92
2024/02/28 18:58:01;;;;;;;10.73;6.20;;;;;;;;;;10436753;28;20389;-90
2024/02/28 19:03:06;;;;;;;14.63;9.35;;;;;;;;;;10423998;28;20399;-91
2024/02/28 19:08:08;;;;;;;11.23;7.10;;;;;;;;;;10402543;28;20415;-90
2024/02/28 19:13:12;;;;;;;13.90;7.77;;;;;;;;;;10410388;28;20446;-93
2024/02/28 19:18:17;;;;;;;13.37;8.93;;;;;;;;;;10383638;28;20426;-90
2024/02/28 19:23:20;;;;;;;21.83;11.73;;;;;;;;;;10358545;28;20426;-89
2024/02/28 19:28:22;;;;;;;18.37;9.10;;;;;;;;;;10350719;28;20462;-88
2024/02/28 19:33:26;;;;;;;19.58;11.20;;;;;;;;;;10349523;28;21128;-88
2024/02/28 19:38:28;;;;;;;24.00;15.63;;;;;;;;;;10354665;28;20467;-88
2024/02/28 19:43:32;;;;;;;18.40;11.07;;;;;;;;;;10346676;28;20479;-88
2024/02/28 19:48:37;;;;;;;18.53;10.83;;;;;;;;;;10353241;28;20501;-90
2024/02/28 19:53:40;;;;;;;18.80;10.93;;;;;;;;;;10353204;28;20987;-88
2024/02/28 19:58:47;;;;;;;14.10;9.77;;;;;;;;;;10352271;28;20489;-87
2024/02/28 20:03:51;;;;;;;17.67;10.27;;;;;;;;;;10348814;28;20449;-88
2024/02/28 20:14:21;;;;;;;15.32;8.70;;;;;;;;;;10366926;28;20458;-87
2024/02/28 20:19:25;;;;;;;14.43;8.40;;;;;;;;;;10362312;28;20471;-91
2024/02/28 20:24:31;;;;;;;16.25;8.48;;;;;;;;;;10360809;28;20411;-89
2024/02/28 20:29:34;;;;;;;12.27;8.55;;;;;;;;;;10389041;28;20445;-90
2024/02/28 20:34:38;;;;;;;17.30;8.23;;;;;;;;;;10417410;28;20462;-90
2024/02/28 20:39:40;;;;;;;11.43;7.70;;;;;;;;;;10381696;28;20450;-90
2024/02/28 20:44:42;;;;;;;10.63;6.68;;;;;;;;;;10376526;28;20444;-91
2024/02/28 20:49:46;;;;;;;8.93;6.38;;;;;;;;;;10381688;28;20425;-90
2024/02/28 20:54:48;;;;;;;11.50;6.00;;;;;;;;;;10383544;28;20425;-90
2024/02/28 20:59:51;;;;;;;8.40;5.43;;;;;;;;;;10382754;28;20438;-90
2024/02/28 21:04:57;;;;;;;9.97;4.33;;;;;;;;;;10345377;28;20420;-91
2024/02/28 21:09:59;;;;;;;6.15;3.75;;;;;;;;;;10350097;28;20454;-90
2024/02/28 21:15:05;;;;;;;7.70;3.85;;;;;;;;;;10352103;28;20412;-88
2024/02/28 21:20:10;;;;;;;6.03;4.00;;;;;;;;;;10366613;28;20550;-90
2024/02/28 21:25:12;;;;;;;7.88;4.20;;;;;;;;;;10353093;28;20399;-89
2024/02/28 21:30:15;;;;;;;5.85;3.67;;;;;;;;;;10348521;28;20460;-90
2024/02/28 21:35:19;;;;;;;7.60;3.22;;;;;;;;;;10353342;28;20893;-88
2024/02/28 21:40:27;;;;;;;7.18;3.53;;;;;;;;;;10367356;28;20423;-89
2024/02/28 21:45:29;;;;;;;6.87;3.40;;;;;;;;;;10355396;28;20426;-89
2024/02/28 21:50:34;;;;;;;7.13;3.23;;;;;;;;;;10359474;28;20419;-89
2024/02/28 21:55:36;;;;;;;8.43;2.50;;;;;;;;;;10371237;28;20488;-90
2024/02/28 22:00:39;;;;;;;6.85;2.67;;;;;;;;;;10371942;28;20990;-88
2024/02/28 22:05:48;;;;;;;5.25;2.25;;;;;;;;;;10353268;28;20439;-89
2024/02/28 22:10:53;;;;;;;7.75;3.40;;;;;;;;;;10352291;28;20423;-91
2024/02/28 22:16:00;;;;;;;8.43;2.70;;;;;;;;;;10355981;28;20421;-89
2024/02/28 22:21:04;;;;;;;6.10;2.50;;;;;;;;;;10348552;28;20541;-89
2024/02/28 22:26:06;;;;;;;7.38;2.78;;;;;;;;;;10362884;28;20419;-89
2024/02/28 22:31:09;;;;;;;5.35;2.50;;;;;;;;;;10386038;28;20422;-89
2024/02/28 22:36:13;;;;;;;5.87;2.50;;;;;;;;;;10367835;28;20467;-88
2024/02/28 22:41:15;;;;;;;9.82;2.40;;;;;;;;;;10363872;28;20411;-90
2024/02/28 22:46:18;;;;;;;8.90;2.80;;;;;;;;;;10355653;28;20475;-89
2024/02/28 22:51:21;;;;;;;6.93;2.70;;;;;;;;;;10369573;28;20430;-89
2024/02/28 22:56:24;;;;;;;9.53;3.93;;;;;;;;;;10359826;28;20420;-89
2024/02/28 23:01:26;;;;;;;6.17;2.63;;;;;;;;;;10362947;28;21018;-90
2024/02/28 23:06:30;;;;;;;8.60;2.97;;;;;;;;;;10372218;28;20468;-89
2024/02/28 23:11:33;;;;;;;9.45;2.60;;;;;;;;;;10353196;28;20421;-88
2024/02/28 23:16:36;;;;;;;10.50;3.35;;;;;;;;;;10368912;28;20401;-88
2024/02/28 23:21:40;;;;;;;9.20;3.50;;;;;;;;;;10388573;28;20905;-88
2024/02/28 23:26:42;;;;;;;8.93;3.13;;;;;;;;;;10375693;28;20458;-89
2024/02/28 23:31:45;;;;;;;6.67;3.13;;;;;;;;;;10376043;28;20454;-89
2024/02/28 23:36:48;;;;;;;10.10;2.92;;;;;;;;;;10373732;28;20477;-89
2024/02/28 23:41:51;;;;;;;18.73;4.10;;;;;;;;;;10382484;28;20461;-90
2024/02/28 23:46:53;;;;;;;13.30;4.30;;;;;;;;;;10369922;28;20417;-90
2024/02/28 23:51:57;;;;;;;9.70;3.23;;;;;;;;;;10368131;28;20421;-91
2024/02/28 23:57:01;;;;;;;10.32;3.60;;;;;;;;;;10362799;28;20863;-89
